Aérodrome :
LOGIN :

S'inscrire | Disclaimer

   EN    FR    IT 

 










Légende :    VFR   VFR Marginal   IFR   IFR Intensif   IFR Très Intensif
Visi : 
Plafond : 
>= 8 km
>= 3000ft
5 à 8 km
1000 à 3000 ft
1500m à 5 km
500 à 1000 ft
800 à 1500m
200 à 500 ft
< 800m
< 200 ft
Symboles :   Orages  Brouillard  Fortes neiges  Fortes précipitations  Vent > 20 kt
SIGMETs :   Divers  Orages  Givrage  Turbulence  Onde Orograph.  Cendres Volcan.







- Altitude de l'aérodrome : 218 ft
- Code IATA : LBG
- Voir les cartes d'approche


LFPB - Paris / Le Bourget

DERNIER METAR :
  • 180630Z AUTO 22004KT 180V250 9999 ///TCU 19/18 Q1014 TEMPO 2000 RA BKN009 SCT015CB

METARs EXPIRÉS :
  • 180600Z AUTO 22004KT 170V270 9999 -RA SCT015/// BKN033/// BKN056/// ///TCU 19/18 Q1014 TEMPO 2000 RA BKN009 SCT015CB
  • 180530Z AUTO 24004KT 210V280 9000 RA SCT014/// BKN019/// BKN037/// ///TCU 19/18 Q1014 TEMPO 2000 RA BKN009 SCT015CB
  • 180500Z AUTO 24005KT 9999 -RA BKN018 BKN044 BKN062 19/18 Q1014 TEMPO 17010KT 2000 +RA BKN012 SCT012TCU
  • 180430Z AUTO 23004KT 9999 BKN016 BKN022 OVC038 20/18 Q1014 TEMPO 17010KT 2000 +RA BKN012 SCT012TCU
  • 180400Z AUTO 21005KT 190V250 9999 BKN015 BKN027 OVC037 20/18 Q1014 TEMPO 2000 +RA BKN012 SCT012TCU

TAF TAF LFPB
Valide du 18 à 06h jusqu'au 19 à 06h UTC


180500Z 1806/1906 21010KT 9999 BKN012
TEMPO 1806/1810 SCT012TCU
PROB40
TEMPO 1806/1809 17010KT 2000 RA BKN009 SCT015CB
TEMPO 1813/1818 SCT030TCU
PROB30
TEMPO 1813/1818 4000 -SHRA FEW025CB
BECMG 1818/1820 CAVOK
ATIS : +33 1 48 62 43 92
Pas de NOTAMs connus pour ce terrain.



MET'MAP, la Météo Aéronautique d'un coup d'oeil ! - Copyright ORBIFLY Décembre 2007 - Disclaimer

ORBIFLY MET'MAP TEAM :

Programmation & Développement : Alexandra Zaïnal
Conception & Développement : Baudouin d'Aumeries
Co-Programmation & Développement : Marc-Olivier Méhu
Soutien technique & logistique : Manuel Goepfert

Contact : metmap@orbifly.com




SOURCES & CREDITS :

   NOAA